createdAt,value
2016-04-07T00:00:09.479Z,22.9
2016-04-07T00:01:09.480Z,22.88
2016-04-07T00:02:09.499Z,22.85
2016-04-07T00:03:09.486Z,22.85
2016-04-07T00:04:09.520Z,22.86
2016-04-07T00:05:09.507Z,22.86
2016-04-07T00:06:09.510Z,22.85
2016-04-07T00:07:09.528Z,22.85
2016-04-07T00:08:09.578Z,22.86
2016-04-07T00:09:09.533Z,22.85
2016-04-07T00:10:09.536Z,22.91
2016-04-07T00:11:09.570Z,22.86
2016-04-07T00:12:09.542Z,22.9
2016-04-07T00:13:09.560Z,22.83
2016-04-07T00:14:09.563Z,22.83
2016-04-07T00:15:09.565Z,22.85
2016-04-07T00:16:09.592Z,22.8
2016-04-07T00:17:09.639Z,22.79
2016-04-07T00:18:09.701Z,22.82
2016-04-07T00:19:09.748Z,22.8
2016-04-07T00:20:09.795Z,22.82
2016-04-07T00:21:09.826Z,22.82
2016-04-07T00:22:09.892Z,22.83
2016-04-07T00:23:09.910Z,22.85
2016-04-07T00:24:09.913Z,22.82
2016-04-07T00:25:09.916Z,22.8
2016-04-07T00:26:09.929Z,22.83
2016-04-07T00:27:09.937Z,22.82
2016-04-07T00:28:09.945Z,22.85
2016-04-07T00:29:09.955Z,22.82
2016-04-07T00:30:09.978Z,22.82
2016-04-07T00:31:10.000Z,22.76
2016-04-07T00:32:10.005Z,22.79
2016-04-07T00:33:10.009Z,22.82
2016-04-07T00:34:10.013Z,22.77
2016-04-07T00:35:10.034Z,22.79
2016-04-07T00:36:10.022Z,22.8
2016-04-07T00:37:10.026Z,22.83
2016-04-07T00:38:10.029Z,22.83
2016-04-07T00:39:10.049Z,22.77
2016-04-07T00:40:10.052Z,22.8
2016-04-07T00:41:10.087Z,22.82
2016-04-07T00:42:10.074Z,22.8
2016-04-07T00:43:10.062Z,22.8
2016-04-07T00:44:10.081Z,22.8
2016-04-07T00:45:10.098Z,22.8
2016-04-07T00:46:10.258Z,22.79
2016-04-07T00:47:10.089Z,22.77
2016-04-07T00:48:10.091Z,22.73
2016-04-07T00:49:10.094Z,22.77
2016-04-07T00:50:10.112Z,22.77
2016-04-07T00:51:10.115Z,22.79
2016-04-07T00:52:10.117Z,22.82
2016-04-07T00:53:10.120Z,22.67
2016-04-07T00:54:10.139Z,22.75
2016-04-07T00:55:10.142Z,22.72
2016-04-07T00:56:10.144Z,22.79
2016-04-07T00:57:10.147Z,22.73
2016-04-07T00:58:10.150Z,22.75
2016-04-07T00:59:10.183Z,22.73
2016-04-07T01:00:10.170Z,22.77
2016-04-07T01:01:10.173Z,22.67
2016-04-07T01:02:10.176Z,22.76
2016-04-07T01:03:10.178Z,22.73
2016-04-07T01:04:10.197Z,22.67
2016-04-07T01:05:10.216Z,22.68
2016-04-07T01:06:10.219Z,22.76
2016-04-07T01:07:10.205Z,22.75
2016-04-07T01:08:10.208Z,22.76
2016-04-07T01:09:10.211Z,22.72
2016-04-07T01:10:10.229Z,22.75
2016-04-07T01:11:10.232Z,22.68
2016-04-07T01:12:10.235Z,22.64
2016-04-07T01:13:10.252Z,22.76
2016-04-07T01:14:10.240Z,22.75
2016-04-07T01:15:10.243Z,22.72
2016-04-07T01:16:10.260Z,22.76
2016-04-07T01:17:10.262Z,22.72
2016-04-07T01:18:10.265Z,22.65
2016-04-07T01:19:10.284Z,22.7
2016-04-07T01:20:10.271Z,22.73
2016-04-07T01:21:10.290Z,22.77
2016-04-07T01:22:10.308Z,22.73
2016-04-07T01:23:10.295Z,22.76
2016-04-07T01:24:10.313Z,22.68
2016-04-07T01:25:10.316Z,22.77
2016-04-07T01:26:10.319Z,22.68
2016-04-07T01:27:10.322Z,22.7
2016-04-07T01:28:10.339Z,22.68
2016-04-07T01:29:10.327Z,22.7
2016-04-07T01:30:10.345Z,22.7
2016-04-07T01:31:10.347Z,22.75
2016-04-07T01:32:10.350Z,22.7
2016-04-07T01:33:10.353Z,22.7
2016-04-07T01:34:10.371Z,22.67
2016-04-07T01:35:10.374Z,22.82
2016-04-07T01:36:10.377Z,22.75
2016-04-07T01:37:10.395Z,22.73
2016-04-07T01:38:10.398Z,22.83
2016-04-07T01:39:10.400Z,22.79
2016-04-07T01:40:10.388Z,22.72
2016-04-07T01:41:10.405Z,22.7
2016-04-07T01:42:10.408Z,22.76
2016-04-07T01:43:10.411Z,22.73
2016-04-07T01:44:10.430Z,22.75
2016-04-07T01:45:10.416Z,22.7
2016-04-07T01:46:10.435Z,22.72
2016-04-07T01:47:10.421Z,22.65
2016-04-07T01:48:10.440Z,22.73
2016-04-07T01:49:10.443Z,22.7
2016-04-07T01:50:10.446Z,22.67
2016-04-07T01:51:10.448Z,22.82
2016-04-07T01:52:10.310Z,22.79
2016-04-07T01:53:10.470Z,22.73
2016-04-07T01:54:10.487Z,22.75
2016-04-07T01:55:10.490Z,22.77
2016-04-07T01:56:10.493Z,22.68
2016-04-07T01:57:10.495Z,22.79
2016-04-07T01:58:10.498Z,22.85
2016-04-07T01:59:10.500Z,22.73
2016-04-07T02:00:10.519Z,22.77
2016-04-07T02:01:10.506Z,22.75
2016-04-07T02:02:10.509Z,22.73
2016-04-07T02:03:10.527Z,22.8
2016-04-07T02:04:10.530Z,22.79
2016-04-07T02:05:10.533Z,22.77
2016-04-07T02:06:10.551Z,22.8
2016-04-07T02:07:10.554Z,22.77
2016-04-07T02:08:10.572Z,22.79
2016-04-07T02:09:10.560Z,22.8
2016-04-07T02:10:10.563Z,22.82
2016-04-07T02:11:10.580Z,22.82
2016-04-07T02:12:10.582Z,22.8
2016-04-07T02:13:10.571Z,22.8
2016-04-07T02:14:10.588Z,22.8
2016-04-07T02:15:10.591Z,22.77
2016-04-07T02:16:10.610Z,22.79
2016-04-07T02:17:10.612Z,22.82
2016-04-07T02:18:10.615Z,22.79
2016-04-07T02:19:10.618Z,22.82
2016-04-07T02:20:10.620Z,22.85
2016-04-07T02:21:10.623Z,22.83
2016-04-07T02:22:10.626Z,22.79
2016-04-07T02:23:10.643Z,22.79
2016-04-07T02:24:10.646Z,22.83
2016-04-07T02:25:10.665Z,22.82
2016-04-07T02:26:10.652Z,22.82
2016-04-07T02:27:10.670Z,22.82
2016-04-07T02:28:10.673Z,22.8
2016-04-07T02:29:10.676Z,22.76
2016-04-07T02:30:10.679Z,22.8
2016-04-07T02:31:10.681Z,22.83
2016-04-07T02:32:10.699Z,22.85
2016-04-07T02:33:10.686Z,22.85
2016-04-07T02:34:10.689Z,22.77
2016-04-07T02:35:10.708Z,22.88
2016-04-07T02:36:10.711Z,22.79
2016-04-07T02:37:10.728Z,22.86
2016-04-07T02:38:10.715Z,22.8
2016-04-07T02:39:10.733Z,22.79
2016-04-07T02:40:10.736Z,22.79
2016-04-07T02:41:10.738Z,22.8
2016-04-07T02:42:10.773Z,22.83
2016-04-07T02:43:10.744Z,22.82
2016-04-07T02:44:10.763Z,22.79
2016-04-07T02:45:10.765Z,22.88
2016-04-07T02:46:10.768Z,22.85
2016-04-07T02:47:10.771Z,22.8
2016-04-07T02:48:10.774Z,22.86
2016-04-07T02:49:10.776Z,22.83
2016-04-07T02:50:10.795Z,22.79
2016-04-07T02:51:10.813Z,22.83
2016-04-07T02:52:10.800Z,22.82
2016-04-07T02:53:10.803Z,22.82
2016-04-07T02:54:10.821Z,22.79
2016-04-07T02:55:10.809Z,22.82
2016-04-07T02:56:10.826Z,22.91
2016-04-07T02:57:10.829Z,22.88
2016-04-07T02:58:10.831Z,22.88
2016-04-07T02:59:10.850Z,22.8
2016-04-07T03:00:10.853Z,22.77
2016-04-07T03:01:10.871Z,22.85
2016-04-07T03:02:10.858Z,22.85
2016-04-07T03:03:10.876Z,22.79
2016-04-07T03:04:10.864Z,22.8
2016-04-07T03:05:10.882Z,22.82
2016-04-07T03:06:10.884Z,22.88
2016-04-07T03:07:10.887Z,22.85
2016-04-07T03:08:10.875Z,22.83
2016-04-07T03:09:10.892Z,22.83
2016-04-07T03:10:10.911Z,22.91
2016-04-07T03:11:10.930Z,22.85
2016-04-07T03:12:10.917Z,22.82
2016-04-07T03:13:10.918Z,22.83
2016-04-07T03:14:10.921Z,22.88
2016-04-07T03:15:10.924Z,22.97
2016-04-07T03:16:10.943Z,22.86
2016-04-07T03:17:10.945Z,22.86
2016-04-07T03:18:10.948Z,22.83
2016-04-07T03:19:10.950Z,22.83
2016-04-07T03:20:10.969Z,22.86
2016-04-07T03:21:10.971Z,22.88
2016-04-07T03:22:10.974Z,22.8
2016-04-07T03:23:10.976Z,22.82
2016-04-07T03:24:10.979Z,22.82
2016-04-07T03:25:10.998Z,22.82
2016-04-07T03:26:11.001Z,22.86
2016-04-07T03:27:11.003Z,22.83
2016-04-07T03:28:11.022Z,22.82
2016-04-07T03:29:10.853Z,22.77
2016-04-07T03:30:11.011Z,22.73
2016-04-07T03:31:11.014Z,22.82
2016-04-07T03:32:11.033Z,22.82
2016-04-07T03:33:11.067Z,22.75
2016-04-07T03:34:11.053Z,22.85
2016-04-07T03:35:11.072Z,22.83
2016-04-07T03:36:11.059Z,22.82
2016-04-07T03:37:11.062Z,22.83
2016-04-07T03:38:11.049Z,22.85
2016-04-07T03:39:11.067Z,22.79
2016-04-07T03:40:11.070Z,22.83
2016-04-07T03:41:11.088Z,22.83
2016-04-07T03:42:11.075Z,22.8
2016-04-07T03:43:11.093Z,22.85
2016-04-07T03:44:11.097Z,22.8
2016-04-07T03:45:11.099Z,22.8
2016-04-07T03:46:11.102Z,22.79
2016-04-07T03:47:11.120Z,22.83
2016-04-07T03:48:11.121Z,22.8
2016-04-07T03:49:11.124Z,22.76
2016-04-07T03:50:11.127Z,22.8
2016-04-07T03:51:11.130Z,22.85
2016-04-07T03:52:11.132Z,22.79
2016-04-07T03:53:11.152Z,22.82
2016-04-07T03:54:11.155Z,22.86
2016-04-07T03:55:11.204Z,22.8
2016-04-07T03:56:11.159Z,22.8
2016-04-07T03:57:11.178Z,22.76
2016-04-07T03:58:11.181Z,22.77
2016-04-07T03:59:11.183Z,22.82
2016-04-07T04:00:11.186Z,22.79
2016-04-07T04:01:11.189Z,22.79
2016-04-07T04:02:11.191Z,22.82
2016-04-07T04:03:11.209Z,22.85
2016-04-07T04:04:11.212Z,22.85
2016-04-07T04:05:11.215Z,22.8
2016-04-07T04:06:11.217Z,22.82
2016-04-07T04:07:11.220Z,22.9
2016-04-07T04:08:11.223Z,22.83
2016-04-07T04:09:11.304Z,22.82
2016-04-07T04:10:11.244Z,22.77
2016-04-07T04:11:11.247Z,22.75
2016-04-07T04:12:11.266Z,22.83
2016-04-07T04:13:11.252Z,22.76
2016-04-07T04:14:11.271Z,22.79
2016-04-07T04:15:11.274Z,22.77
2016-04-07T04:16:11.338Z,22.77
2016-04-07T04:17:11.279Z,22.77
2016-04-07T04:18:11.282Z,22.76
2016-04-07T04:19:11.285Z,22.7
2016-04-07T04:20:11.302Z,22.75
2016-04-07T04:21:11.305Z,22.8
2016-04-07T04:22:11.308Z,22.77
2016-04-07T04:23:11.310Z,22.79
2016-04-07T04:24:11.344Z,22.79
2016-04-07T04:25:11.332Z,22.85
2016-04-07T04:26:11.334Z,22.88
2016-04-07T04:27:10.587Z,22.86
2016-04-07T04:28:11.340Z,22.83
2016-04-07T04:29:11.358Z,22.77
2016-04-07T04:30:11.359Z,22.8
2016-04-07T04:31:11.362Z,22.79
2016-04-07T04:32:11.365Z,22.8
2016-04-07T04:33:11.384Z,22.79
2016-04-07T04:34:11.387Z,22.8
2016-04-07T04:35:11.373Z,22.85
2016-04-07T04:36:11.376Z,22.83
2016-04-07T04:37:11.394Z,22.75
2016-04-07T04:38:11.397Z,22.83
2016-04-07T04:39:11.416Z,22.83
2016-04-07T04:40:11.403Z,22.83
2016-04-07T04:41:11.422Z,22.75
2016-04-07T04:42:11.439Z,22.85
2016-04-07T04:43:11.457Z,22.77
2016-04-07T04:44:11.444Z,22.77
2016-04-07T04:45:11.463Z,22.83
2016-04-07T04:46:11.450Z,22.82
2016-04-07T04:47:11.452Z,22.86
2016-04-07T04:48:11.471Z,22.82
2016-04-07T04:49:11.458Z,22.85
2016-04-07T04:50:11.461Z,22.85
2016-04-07T04:51:11.479Z,22.86
2016-04-07T04:52:11.466Z,22.85
2016-04-07T04:53:11.485Z,22.85
2016-04-07T04:54:11.613Z,22.83
2016-04-07T04:55:11.490Z,22.83
2016-04-07T04:56:11.509Z,22.86
2016-04-07T04:57:11.512Z,22.83
2016-04-07T04:58:11.514Z,22.85
2016-04-07T04:59:11.532Z,22.79
2016-04-07T05:00:11.534Z,22.8
2016-04-07T05:01:11.537Z,22.85
2016-04-07T05:02:11.540Z,22.92
2016-04-07T05:03:11.543Z,22.91
2016-04-07T05:04:11.545Z,22.94
2016-04-07T05:05:11.564Z,22.92
2016-04-07T05:06:11.567Z,22.83
2016-04-07T05:07:11.570Z,22.83
2016-04-07T05:08:11.556Z,22.9
2016-04-07T05:09:11.731Z,22.83
2016-04-07T05:10:11.592Z,22.9
2016-04-07T05:11:11.580Z,22.91
2016-04-07T05:12:11.598Z,22.8
2016-04-07T05:13:11.616Z,22.82
2016-04-07T05:14:11.604Z,22.91
2016-04-07T05:15:11.606Z,22.97
2016-04-07T05:16:11.625Z,22.86
2016-04-07T05:17:11.627Z,22.95
2016-04-07T05:18:11.630Z,22.91
2016-04-07T05:19:11.477Z,22.9
2016-04-07T05:20:11.635Z,22.94
2016-04-07T05:21:11.654Z,22.88
2016-04-07T05:22:11.657Z,22.8
2016-04-07T05:23:11.659Z,22.8
2016-04-07T05:24:11.740Z,22.91
2016-04-07T05:25:11.664Z,22.9
2016-04-07T05:26:11.682Z,22.92
2016-04-07T05:27:11.685Z,22.8
2016-04-07T05:28:11.688Z,22.9
2016-04-07T05:29:11.707Z,22.97
2016-04-07T05:30:11.693Z,22.9
2016-04-07T05:31:11.712Z,22.9
2016-04-07T05:32:11.714Z,22.91
2016-04-07T05:33:11.717Z,22.94
2016-04-07T05:34:11.720Z,22.92
2016-04-07T05:35:11.723Z,22.9
2016-04-07T05:36:11.741Z,22.9
2016-04-07T05:37:11.728Z,22.8
2016-04-07T05:38:11.747Z,22.92
2016-04-07T05:39:11.843Z,22.95
2016-04-07T05:40:11.767Z,22.97
2016-04-07T05:41:11.770Z,22.85
2016-04-07T05:42:11.757Z,22.83
2016-04-07T05:43:11.775Z,23
2016-04-07T05:44:11.794Z,23.01
2016-04-07T05:45:11.781Z,23.1
2016-04-07T05:46:11.799Z,23.01
2016-04-07T05:47:11.802Z,22.97
2016-04-07T05:48:11.805Z,22.98
2016-04-07T05:49:11.808Z,22.97
2016-04-07T05:50:11.810Z,23
2016-04-07T05:51:11.828Z,22.98
2016-04-07T05:52:11.831Z,23
2016-04-07T05:53:11.833Z,22.98
2016-04-07T05:54:11.852Z,23.02
2016-04-07T05:55:11.839Z,23.02
2016-04-07T05:56:11.858Z,23.15
2016-04-07T05:57:11.860Z,23
2016-04-07T05:58:11.862Z,23.07
2016-04-07T05:59:11.865Z,23.22
2016-04-07T06:00:11.884Z,23.22
2016-04-07T06:01:11.886Z,23.17
2016-04-07T06:02:11.889Z,23.17
2016-04-07T06:03:11.892Z,23.17
2016-04-07T06:04:11.910Z,23.27
2016-04-07T06:05:11.912Z,23.31
2016-04-07T06:06:11.915Z,23.33
2016-04-07T06:07:11.917Z,23.2
2016-04-07T06:08:11.920Z,23.17
2016-04-07T06:09:12.147Z,23.17
2016-04-07T06:10:11.962Z,23.35
2016-04-07T06:11:11.950Z,23.22
2016-04-07T06:12:11.952Z,23.16
2016-04-07T06:13:11.970Z,23.27
2016-04-07T06:14:11.958Z,23.25
2016-04-07T06:15:11.975Z,23.36
2016-04-07T06:16:11.994Z,23.4
2016-04-07T06:17:11.981Z,23.36
2016-04-07T06:18:11.999Z,23.28
2016-04-07T06:19:12.018Z,23.33
2016-04-07T06:20:12.005Z,23.35
2016-04-07T06:21:12.008Z,23.38
2016-04-07T06:22:12.026Z,23.42
2016-04-07T06:23:12.029Z,23.5
2016-04-07T06:24:12.078Z,23.55
2016-04-07T06:25:12.034Z,23.61
2016-04-07T06:26:12.051Z,23.58
2016-04-07T06:27:12.070Z,23.58
2016-04-07T06:28:12.057Z,23.6
2016-04-07T06:29:12.076Z,23.51
2016-04-07T06:30:12.094Z,23.51
2016-04-07T06:31:12.081Z,23.57
2016-04-07T06:32:12.100Z,23.65
2016-04-07T06:33:12.102Z,23.6
2016-04-07T06:34:12.105Z,23.65
2016-04-07T06:35:12.123Z,23.6
2016-04-07T06:36:12.126Z,23.6
2016-04-07T06:37:12.128Z,23.76
2016-04-07T06:38:12.131Z,23.65
2016-04-07T06:39:12.133Z,23.69
2016-04-07T06:40:12.137Z,23.7
2016-04-07T06:41:12.155Z,23.75
2016-04-07T06:42:12.173Z,23.79
2016-04-07T06:43:12.192Z,23.87
2016-04-07T06:44:12.179Z,23.84
2016-04-07T06:45:12.197Z,23.7
2016-04-07T06:46:12.199Z,23.68
2016-04-07T06:47:12.218Z,23.66
2016-04-07T06:48:12.221Z,23.8
2016-04-07T06:49:12.239Z,23.79
2016-04-07T06:50:12.242Z,23.83
2016-04-07T06:51:12.244Z,23.76
2016-04-07T06:52:12.247Z,23.83
2016-04-07T06:53:12.249Z,23.72
2016-04-07T06:54:12.284Z,23.69
2016-04-07T06:55:12.270Z,23.66
2016-04-07T06:56:12.289Z,23.72
2016-04-07T06:57:12.292Z,23.68
2016-04-07T06:58:12.310Z,23.72
2016-04-07T06:59:12.313Z,23.7
2016-04-07T07:00:12.315Z,23.7
2016-04-07T07:01:12.334Z,23.63
2016-04-07T07:02:12.336Z,23.61
2016-04-07T07:03:12.339Z,23.61
2016-04-07T07:04:12.342Z,23.54
2016-04-07T07:05:12.360Z,23.57
2016-04-07T07:06:12.363Z,23.61
2016-04-07T07:07:12.381Z,23.65
2016-04-07T07:08:12.384Z,23.63
2016-04-07T07:09:12.387Z,23.65
2016-04-07T07:10:12.373Z,23.68
2016-04-07T07:11:12.392Z,23.65
2016-04-07T07:12:12.394Z,23.69
2016-04-07T07:13:12.413Z,23.6
2016-04-07T07:14:12.416Z,23.57
2016-04-07T07:15:12.434Z,23.6
2016-04-07T07:16:12.437Z,23.66
2016-04-07T07:17:12.471Z,23.68
2016-04-07T07:18:12.442Z,23.61
2016-04-07T07:19:12.460Z,23.65
2016-04-07T07:20:12.510Z,23.58
2016-04-07T07:21:12.466Z,23.53
2016-04-07T07:22:12.468Z,23.53
2016-04-07T07:23:12.487Z,23.53
2016-04-07T07:24:12.489Z,23.54
2016-04-07T07:25:12.507Z,23.6
2016-04-07T07:26:12.495Z,23.69
2016-04-07T07:27:12.498Z,23.61
2016-04-07T07:28:12.516Z,23.69
2016-04-07T07:29:12.518Z,23.63
2016-04-07T07:30:12.599Z,23.54
2016-04-07T07:31:12.539Z,23.47
2016-04-07T07:32:12.480Z,23.58
2016-04-07T07:33:12.551Z,23.65
2016-04-07T07:34:13.099Z,23.54
2016-04-07T07:35:12.556Z,23.7
2016-04-07T07:36:12.574Z,23.75
2016-04-07T07:37:12.562Z,23.85
2016-04-07T07:38:12.580Z,23.97
2016-04-07T07:39:12.582Z,24.06
2016-04-07T07:40:12.575Z,24.16
2016-04-07T07:41:12.592Z,24.22
2016-04-07T07:42:12.611Z,24.34
2016-04-07T07:43:12.614Z,24.32
2016-04-07T07:44:12.616Z,24.32
2016-04-07T07:45:12.619Z,24.37
2016-04-07T07:46:12.481Z,24.4
2016-04-07T07:47:12.640Z,24.47
2016-04-07T07:48:12.643Z,24.58
2016-04-07T07:49:12.645Z,24.6
2016-04-07T07:50:12.664Z,24.69
2016-04-07T07:51:12.666Z,24.67
2016-04-07T07:52:12.669Z,24.77
2016-04-07T07:53:12.671Z,24.69
2016-04-07T07:54:12.674Z,24.8
2016-04-07T07:55:12.693Z,24.84
2016-04-07T07:56:12.695Z,24.84
2016-04-07T07:57:12.713Z,24.93
2016-04-07T07:58:12.794Z,24.87
2016-04-07T07:59:12.719Z,24.91
2016-04-07T08:00:13.191Z,25
2016-04-07T08:01:12.724Z,24.91
2016-04-07T08:02:12.727Z,24.91
2016-04-07T08:03:12.746Z,24.95
2016-04-07T08:04:12.748Z,25.02
2016-04-07T08:05:12.751Z,24.96
2016-04-07T08:06:12.940Z,24.99
2016-04-07T08:07:12.772Z,24.99
2016-04-07T08:08:12.775Z,24.96
2016-04-07T08:09:12.793Z,25.05
2016-04-07T08:10:12.796Z,24.96
2016-04-07T08:11:12.798Z,24.93
2016-04-07T08:12:12.786Z,25
2016-04-07T08:13:12.819Z,24.98
2016-04-07T08:14:12.806Z,24.95
2016-04-07T08:15:12.840Z,25.03
2016-04-07T08:16:12.843Z,25.06
2016-04-07T08:17:12.831Z,25.09
2016-04-07T08:18:12.848Z,25.03
2016-04-07T08:19:12.851Z,25.08
2016-04-07T08:20:12.869Z,25.08
2016-04-07T08:21:12.872Z,24.98
2016-04-07T08:22:12.875Z,24.96
2016-04-07T08:23:12.877Z,25.08
2016-04-07T08:24:12.896Z,25.05
2016-04-07T08:25:12.882Z,24.99
2016-04-07T08:26:12.901Z,24.95
2016-04-07T08:27:12.904Z,24.88
2016-04-07T08:28:12.922Z,24.93
2016-04-07T08:29:12.925Z,25
2016-04-07T08:30:12.944Z,24.93
2016-04-07T08:31:12.962Z,24.98
2016-04-07T08:32:12.965Z,25.09
2016-04-07T08:33:12.967Z,25.61
2016-04-07T08:34:12.970Z,25.87
2016-04-07T08:35:12.987Z,26.52
2016-04-07T08:36:12.990Z,28.15
2016-04-07T08:37:12.979Z,28.04
2016-04-07T08:38:12.981Z,26.58
2016-04-07T08:39:13.000Z,26.81
2016-04-07T08:40:13.080Z,26.7
2016-04-07T08:41:13.036Z,25.82
2016-04-07T08:42:13.038Z,25.39
2016-04-07T08:43:13.057Z,25.2
2016-04-07T08:44:13.044Z,24.99
2016-04-07T08:45:13.047Z,24.9
2016-04-07T08:46:13.050Z,24.83
2016-04-07T08:47:13.052Z,24.85
2016-04-07T08:48:13.055Z,24.8
2016-04-07T08:49:13.073Z,24.84
2016-04-07T08:50:13.076Z,24.84
2016-04-07T08:51:13.078Z,24.87
2016-04-07T08:52:13.097Z,24.85
2016-04-07T08:53:12.943Z,24.87
2016-04-07T08:54:13.103Z,24.85
2016-04-07T08:55:14.683Z,24.95
2016-04-07T08:56:13.123Z,24.85
2016-04-07T08:57:13.142Z,24.84
2016-04-07T08:58:13.144Z,24.9
2016-04-07T08:59:13.162Z,24.81
2016-04-07T09:00:13.165Z,24.88
2016-04-07T09:01:13.153Z,24.85
2016-04-07T09:02:13.171Z,24.91
2016-04-07T09:03:13.173Z,24.93
2016-04-07T09:04:13.176Z,24.9
2016-04-07T09:05:13.178Z,24.87
2016-04-07T09:06:13.197Z,24.87
2016-04-07T09:07:15.355Z,24.83
2016-04-07T09:08:13.077Z,24.83
2016-04-07T09:09:13.205Z,24.91
2016-04-07T09:10:13.224Z,24.83
2016-04-07T09:11:13.273Z,24.88
2016-04-07T09:12:13.230Z,24.81
2016-04-07T09:13:13.247Z,24.84
2016-04-07T09:14:13.250Z,24.85
2016-04-07T09:15:13.252Z,24.98
2016-04-07T09:16:13.271Z,24.95
2016-04-07T09:17:13.274Z,24.9
2016-04-07T09:18:13.276Z,24.91
2016-04-07T09:19:13.295Z,24.9
2016-04-07T09:20:13.297Z,24.95
2016-04-07T09:21:13.301Z,24.95
2016-04-07T09:22:13.342Z,24.87
2016-04-07T09:23:13.381Z,24.87
2016-04-07T09:24:13.436Z,24.95
2016-04-07T09:25:13.459Z,25.1
2016-04-07T09:26:13.514Z,25.08
2016-04-07T09:27:13.538Z,25.08
2016-04-07T09:28:13.555Z,25.13
2016-04-07T09:29:13.570Z,25.09
2016-04-07T09:30:13.961Z,25.03
2016-04-07T09:31:13.617Z,25.05
2016-04-07T09:32:13.643Z,25.13
2016-04-07T09:33:13.666Z,25.08
2016-04-07T09:34:13.657Z,25.06
2016-04-07T09:35:13.664Z,25.03
2016-04-07T09:36:13.688Z,25.05
2016-04-07T09:37:13.677Z,24.96
2016-04-07T09:38:13.698Z,25
2016-04-07T09:39:13.703Z,25.1
2016-04-07T09:40:13.723Z,25.05
2016-04-07T09:41:13.727Z,25.03
2016-04-07T09:42:13.731Z,25
2016-04-07T09:43:13.750Z,25
2016-04-07T09:44:13.816Z,25.05
2016-04-07T09:45:13.773Z,25.09
2016-04-07T09:46:13.776Z,25.1
2016-04-07T09:47:13.779Z,25.13
2016-04-07T09:48:13.782Z,25.05
2016-04-07T09:49:13.800Z,25.1
2016-04-07T09:50:13.803Z,25.13
2016-04-07T09:51:13.790Z,25.14
2016-04-07T09:52:13.824Z,25.17
2016-04-07T09:53:13.841Z,25.06
2016-04-07T09:54:13.829Z,25.14
2016-04-07T09:55:13.926Z,25.2
2016-04-07T09:56:13.835Z,25.15
2016-04-07T09:57:13.837Z,25.08
2016-04-07T09:58:13.855Z,25
2016-04-07T09:59:13.858Z,25
2016-04-07T10:00:13.876Z,24.87
2016-04-07T10:01:13.879Z,24.99
2016-04-07T10:02:13.912Z,25.03
2016-04-07T10:03:13.900Z,24.95
2016-04-07T10:04:13.903Z,24.9
2016-04-07T10:05:13.906Z,24.87
2016-04-07T10:06:13.909Z,24.91
2016-04-07T10:07:13.927Z,25
2016-04-07T10:08:14.413Z,25.02
2016-04-07T10:09:14.494Z,25.08
2016-04-07T10:10:13.950Z,25.02
2016-04-07T10:11:13.953Z,25.03
2016-04-07T10:12:13.955Z,24.93
2016-04-07T10:13:13.974Z,24.98
2016-04-07T10:14:13.977Z,24.96
2016-04-07T10:15:13.979Z,24.99
2016-04-07T10:16:13.983Z,24.99
2016-04-07T10:17:14.000Z,24.9
2016-04-07T10:18:14.034Z,24.98
2016-04-07T10:19:14.022Z,24.84
2016-04-07T10:20:14.024Z,24.84
2016-04-07T10:21:14.042Z,24.9
2016-04-07T10:22:14.029Z,24.93
2016-04-07T10:23:14.048Z,25
2016-04-07T10:24:14.035Z,24.84
2016-04-07T10:25:14.132Z,24.87
2016-04-07T10:26:14.088Z,24.93
2016-04-07T10:27:14.074Z,24.83
2016-04-07T10:28:14.077Z,24.81
2016-04-07T10:29:14.079Z,24.85
2016-04-07T10:30:14.098Z,24.95
2016-04-07T10:31:14.084Z,24.85
2016-04-07T10:32:14.087Z,24.84
2016-04-07T10:33:14.121Z,24.95
2016-04-07T10:34:14.156Z,24.85
2016-04-07T10:35:13.830Z,24.85
2016-04-07T10:36:14.114Z,25.02
2016-04-07T10:37:14.132Z,24.84
2016-04-07T10:38:14.150Z,24.93
2016-04-07T10:39:14.153Z,24.99
2016-04-07T10:40:14.249Z,25.05
2016-04-07T10:41:14.174Z,24.98
2016-04-07T10:42:14.177Z,24.96
2016-04-07T10:43:14.195Z,25
2016-04-07T10:44:14.198Z,25.14
2016-04-07T10:45:14.201Z,25.2
2016-04-07T10:46:14.203Z,25.2
2016-04-07T10:47:14.206Z,25.13
2016-04-07T10:48:14.225Z,25.14
2016-04-07T10:49:14.242Z,25.24
2016-04-07T10:50:14.245Z,25.2
2016-04-07T10:51:14.248Z,25.1
2016-04-07T10:52:14.251Z,25.17
2016-04-07T10:53:14.253Z,25.15
2016-04-07T10:54:14.256Z,25.08
2016-04-07T10:55:14.274Z,25.15
2016-04-07T10:56:14.121Z,25.17
2016-04-07T10:57:14.311Z,25.1
2016-04-07T10:58:14.282Z,25.14
2016-04-07T10:59:14.301Z,25.15
2016-04-07T11:00:14.318Z,25.23
2016-04-07T11:01:14.321Z,25.18
2016-04-07T11:02:14.309Z,25.1
2016-04-07T11:03:14.327Z,25.15
2016-04-07T11:04:14.330Z,25.1
2016-04-07T11:05:14.332Z,25.09
2016-04-07T11:06:14.335Z,25.08
2016-04-07T11:07:14.353Z,25.06
2016-04-07T11:08:14.372Z,24.98
2016-04-07T11:09:14.358Z,25.03
2016-04-07T11:10:14.517Z,25.08
2016-04-07T11:11:14.395Z,25
2016-04-07T11:12:14.383Z,25.06
2016-04-07T11:13:14.401Z,25
2016-04-07T11:14:14.404Z,25.05
2016-04-07T11:15:14.406Z,25.02
2016-04-07T11:16:14.425Z,24.98
2016-04-07T11:17:14.427Z,25
2016-04-07T11:18:14.430Z,24.95
2016-04-07T11:19:14.448Z,24.95
2016-04-07T11:20:14.451Z,24.85
2016-04-07T11:21:14.454Z,25.03
2016-04-07T11:22:14.456Z,24.93
2016-04-07T11:23:14.459Z,25.08
2016-04-07T11:24:14.461Z,25.02
2016-04-07T11:25:14.480Z,24.98
2016-04-07T11:26:14.498Z,24.98
2016-04-07T11:27:14.501Z,25
2016-04-07T11:28:14.504Z,24.88
2016-04-07T11:29:14.507Z,24.68
2016-04-07T11:30:14.525Z,24.57
2016-04-07T11:31:14.543Z,24.53
2016-04-07T11:32:14.546Z,24.55
2016-04-07T11:33:14.549Z,24.53
2016-04-07T11:34:14.535Z,24.47
2016-04-07T11:35:14.554Z,24.5
2016-04-07T11:36:14.557Z,24.47
2016-04-07T11:37:14.575Z,24.49
2016-04-07T11:38:14.578Z,24.42
2016-04-07T11:39:14.596Z,24.39
2016-04-07T11:40:14.615Z,24.45
2016-04-07T11:41:14.601Z,24.43
2016-04-07T11:42:14.651Z,24.42
2016-04-07T11:43:14.623Z,24.47
2016-04-07T11:44:14.625Z,24.5
2016-04-07T11:45:14.643Z,24.47
2016-04-07T11:46:14.631Z,24.46
2016-04-07T11:47:14.648Z,24.4
2016-04-07T11:48:14.636Z,24.37
2016-04-07T11:49:14.670Z,24.32
2016-04-07T11:50:14.656Z,24.35
2016-04-07T11:51:14.706Z,24.42
2016-04-07T11:52:14.678Z,24.47
2016-04-07T11:53:14.680Z,24.39
2016-04-07T11:54:14.699Z,24.53
2016-04-07T11:55:14.717Z,24.55
2016-04-07T11:56:14.720Z,24.71
2016-04-07T11:57:14.722Z,24.77
2016-04-07T11:58:14.725Z,24.64
2016-04-07T11:59:14.728Z,24.62
2016-04-07T12:00:14.808Z,24.57
2016-04-07T12:01:14.733Z,24.61
2016-04-07T12:02:14.752Z,24.58
2016-04-07T12:03:14.754Z,24.55
2016-04-07T12:04:14.773Z,24.65
2016-04-07T12:05:14.776Z,24.6
2016-04-07T12:06:14.778Z,24.53
2016-04-07T12:07:14.781Z,24.53
2016-04-07T12:08:14.784Z,24.57
2016-04-07T12:09:14.817Z,24.5
2016-04-07T12:10:14.929Z,24.53
2016-04-07T12:11:14.822Z,24.42
2016-04-07T12:12:14.825Z,24.32
2016-04-07T12:13:14.843Z,24.37
2016-04-07T12:14:14.846Z,24.4
2016-04-07T12:15:14.849Z,24.45
2016-04-07T12:16:14.851Z,24.39
2016-04-07T12:17:14.854Z,24.39
2016-04-07T12:18:14.856Z,24.45
2016-04-07T12:19:14.875Z,24.52
2016-04-07T12:20:14.878Z,24.53
2016-04-07T12:21:14.880Z,24.62
2016-04-07T12:22:14.914Z,24.53
2016-04-07T12:23:14.885Z,24.53
2016-04-07T12:24:14.904Z,24.57
2016-04-07T12:25:14.922Z,24.64
2016-04-07T12:26:14.925Z,24.69
2016-04-07T12:27:14.913Z,24.6
2016-04-07T12:28:14.946Z,24.68
2016-04-07T12:29:14.933Z,24.65
2016-04-07T12:30:14.952Z,24.65
2016-04-07T12:31:15.313Z,24.62
2016-04-07T12:32:14.957Z,24.64
2016-04-07T12:33:14.959Z,24.69
2016-04-07T12:34:14.978Z,24.64
2016-04-07T12:35:14.981Z,24.68
2016-04-07T12:36:14.984Z,24.69
2016-04-07T12:37:14.987Z,24.83
2016-04-07T12:38:15.004Z,24.67
2016-04-07T12:39:15.007Z,24.68
2016-04-07T12:40:14.962Z,24.68
2016-04-07T12:41:15.028Z,24.65
2016-04-07T12:42:15.031Z,24.61
2016-04-07T12:43:15.034Z,24.6
2016-04-07T12:44:15.052Z,24.58
2016-04-07T12:45:15.054Z,24.55
2016-04-07T12:46:15.073Z,24.67
2016-04-07T12:47:15.075Z,24.64
2016-04-07T12:48:15.078Z,24.6
2016-04-07T12:49:15.096Z,24.71
2016-04-07T12:50:15.099Z,24.67
2016-04-07T12:51:15.102Z,24.67
2016-04-07T12:52:14.963Z,24.64
2016-04-07T12:53:15.108Z,24.64
2016-04-07T12:54:29.235Z,24.52
2016-04-07T12:55:15.144Z,24.52
2016-04-07T12:56:15.150Z,24.58
2016-04-07T12:57:15.152Z,24.65
2016-04-07T12:58:15.155Z,24.68